createdAt,value
2022-12-08T00:00:46.482Z,93.40
2022-12-08T00:01:50.350Z,93.70
2022-12-08T00:02:53.364Z,93.21
2022-12-08T00:03:57.653Z,93.29
2022-12-08T00:05:18.842Z,93.72
2022-12-08T00:06:44.431Z,93.38
2022-12-08T00:08:05.465Z,93.32
2022-12-08T00:09:23.690Z,93.16
2022-12-08T00:10:48.386Z,93.69
2022-12-08T00:11:50.802Z,93.57
2022-12-08T00:12:54.900Z,93.47
2022-12-08T00:13:58.938Z,93.59
2022-12-08T00:15:03.048Z,93.34
2022-12-08T00:16:06.368Z,93.12
2022-12-08T00:17:11.807Z,93.11
2022-12-08T00:18:14.487Z,93.38
2022-12-08T00:19:18.214Z,92.89
2022-12-08T00:20:20.930Z,93.28
2022-12-08T00:21:24.618Z,93.13
2022-12-08T00:22:29.373Z,93.20
2022-12-08T00:23:33.139Z,93.06
2022-12-08T00:24:38.669Z,92.61
2022-12-08T00:25:42.429Z,92.60
2022-12-08T00:26:46.166Z,93.06
2022-12-08T00:27:48.788Z,92.58
2022-12-08T00:28:57.044Z,92.51
2022-12-08T00:29:59.737Z,92.20
2022-12-08T00:31:09.799Z,92.73
2022-12-08T00:32:13.613Z,92.75
2022-12-08T00:33:16.337Z,92.61
2022-12-08T00:34:20.076Z,92.65
2022-12-08T00:35:22.837Z,92.55
2022-12-08T00:36:26.653Z,92.71
2022-12-08T00:37:29.487Z,92.32
2022-12-08T00:38:33.230Z,92.82
2022-12-08T00:39:36.936Z,92.63
2022-12-08T00:40:44.445Z,92.77
2022-12-08T00:42:05.718Z,92.82
2022-12-08T00:43:09.439Z,92.29
2022-12-08T00:44:14.811Z,92.35
2022-12-08T00:45:18.723Z,92.29
2022-12-08T00:46:21.411Z,92.50
2022-12-08T00:47:25.292Z,92.40
2022-12-08T00:48:28.037Z,92.66
2022-12-08T00:49:31.789Z,92.67
2022-12-08T00:50:34.519Z,92.78
2022-12-08T00:51:38.468Z,92.65
2022-12-08T00:52:41.121Z,92.26
2022-12-08T00:53:44.761Z,92.58
2022-12-08T00:54:47.467Z,92.58
2022-12-08T00:55:51.137Z,92.60
2022-12-08T00:56:53.817Z,92.06
2022-12-08T00:57:57.527Z,92.44
2022-12-08T00:59:00.389Z,92.03
2022-12-08T01:00:06.898Z,92.14
2022-12-08T01:01:11.059Z,91.99
2022-12-08T01:02:14.820Z,92.36
2022-12-08T01:03:17.598Z,92.50
2022-12-08T01:04:21.617Z,92.36
2022-12-08T01:05:24.286Z,92.29
2022-12-08T01:06:28.148Z,91.91
2022-12-08T01:07:30.841Z,92.33
2022-12-08T01:08:34.789Z,92.17
2022-12-08T01:09:37.516Z,92.13
2022-12-08T01:10:41.326Z,91.86
2022-12-08T01:11:44.879Z,91.99
2022-12-08T01:12:48.552Z,92.03
2022-12-08T01:13:51.241Z,92.16
2022-12-08T01:14:59.196Z,92.03
2022-12-08T01:16:06.390Z,92.03
2022-12-08T01:17:10.282Z,92.20
2022-12-08T01:18:14.090Z,92.17
2022-12-08T01:19:17.318Z,91.90
2022-12-08T01:20:21.029Z,92.27
2022-12-08T01:21:23.720Z,92.01
2022-12-08T01:22:27.526Z,91.84
2022-12-08T01:23:30.330Z,91.69
2022-12-08T01:24:34.184Z,91.71
2022-12-08T01:25:36.810Z,92.06
2022-12-08T01:26:40.594Z,91.67
2022-12-08T01:27:43.239Z,91.79
2022-12-08T01:28:48.237Z,91.53
2022-12-08T01:29:52.092Z,91.52
2022-12-08T01:30:54.785Z,91.33
2022-12-08T01:31:59.984Z,91.47
2022-12-08T01:33:02.604Z,91.53
2022-12-08T01:34:06.569Z,91.77
2022-12-08T01:35:09.810Z,91.51
2022-12-08T01:36:21.688Z,91.66
2022-12-08T01:37:25.532Z,91.47
2022-12-08T01:38:28.365Z,91.46
2022-12-08T01:39:32.128Z,91.18
2022-12-08T01:40:34.838Z,91.44
2022-12-08T01:41:39.559Z,91.39
2022-12-08T01:42:42.257Z,91.29
2022-12-08T01:43:56.036Z,91.39
2022-12-08T01:45:01.596Z,91.38
2022-12-08T01:46:04.440Z,91.69
2022-12-08T01:47:09.632Z,91.35
2022-12-08T01:48:18.115Z,91.33
2022-12-08T01:49:23.898Z,91.80
2022-12-08T01:50:29.238Z,91.74
2022-12-08T01:51:35.588Z,91.61
2022-12-08T01:52:42.218Z,91.22
2022-12-08T01:53:45.087Z,91.17
2022-12-08T01:54:51.968Z,91.28
2022-12-08T01:55:56.732Z,91.06
2022-12-08T01:57:02.667Z,91.33
2022-12-08T01:58:11.816Z,91.50
2022-12-08T01:59:15.608Z,91.16
2022-12-08T02:00:20.467Z,91.18
2022-12-08T02:01:24.315Z,91.42
2022-12-08T02:02:31.294Z,91.63
2022-12-08T02:03:40.048Z,91.22
2022-12-08T02:04:42.979Z,91.09
2022-12-08T02:05:47.869Z,91.14
2022-12-08T02:06:51.627Z,91.49
2022-12-08T02:07:56.274Z,91.34
2022-12-08T02:09:00.450Z,91.32
2022-12-08T02:10:05.809Z,91.22
2022-12-08T02:11:10.100Z,91.13
2022-12-08T02:12:13.877Z,91.07
2022-12-08T02:13:17.897Z,91.28
2022-12-08T02:14:21.637Z,90.96
2022-12-08T02:15:32.343Z,91.31
2022-12-08T02:16:42.436Z,91.00
2022-12-08T02:17:55.456Z,91.26
2022-12-08T02:19:30.318Z,91.47
2022-12-08T02:20:46.167Z,90.95
2022-12-08T02:21:55.012Z,91.43
2022-12-08T02:23:03.297Z,91.33
2022-12-08T02:24:12.069Z,91.56
2022-12-08T02:25:22.567Z,91.52
2022-12-08T02:27:01.545Z,91.37
2022-12-08T02:28:12.579Z,91.20
2022-12-08T02:29:49.936Z,91.48
2022-12-08T02:31:03.344Z,91.40
2022-12-08T02:32:22.105Z,91.37
2022-12-08T02:33:55.244Z,91.27
2022-12-08T02:35:03.607Z,91.24
2022-12-08T02:36:09.029Z,91.21
2022-12-08T02:37:18.284Z,91.36
2022-12-08T02:38:25.148Z,91.68
2022-12-08T02:39:37.606Z,91.71
2022-12-08T02:40:46.587Z,91.69
2022-12-08T02:41:54.376Z,91.44
2022-12-08T02:43:02.259Z,91.42
2022-12-08T02:44:11.276Z,91.31
2022-12-08T02:45:23.920Z,91.33
2022-12-08T02:46:31.794Z,91.24
2022-12-08T02:47:36.210Z,91.47
2022-12-08T02:48:39.449Z,91.18
2022-12-08T02:49:43.400Z,91.33
2022-12-08T02:50:47.468Z,91.25
2022-12-08T02:51:51.268Z,91.29
2022-12-08T02:52:53.973Z,90.77
2022-12-08T02:53:58.080Z,91.26
2022-12-08T02:55:04.275Z,91.19
2022-12-08T02:56:15.899Z,90.91
2022-12-08T02:57:29.145Z,90.75
2022-12-08T02:58:57.167Z,90.78
2022-12-08T03:00:08.461Z,90.86
2022-12-08T03:01:22.649Z,90.91
2022-12-08T03:02:42.505Z,90.94
2022-12-08T03:03:49.119Z,91.00
2022-12-08T03:04:55.871Z,90.70
2022-12-08T03:06:08.469Z,90.76
2022-12-08T03:07:15.927Z,91.09
2022-12-08T03:08:24.861Z,91.05
2022-12-08T03:09:34.368Z,91.02
2022-12-08T03:10:42.086Z,91.17
2022-12-08T03:11:48.725Z,91.06
2022-12-08T03:12:56.006Z,91.04
2022-12-08T03:14:01.208Z,91.30
2022-12-08T03:15:09.729Z,91.06
2022-12-08T03:16:15.659Z,91.25
2022-12-08T03:17:22.110Z,91.40
2022-12-08T03:18:29.308Z,91.17
2022-12-08T03:19:35.541Z,91.07
2022-12-08T03:20:39.176Z,90.95
2022-12-08T03:21:46.028Z,91.07
2022-12-08T03:22:50.038Z,91.25
2022-12-08T03:23:55.694Z,90.85
2022-12-08T03:24:58.677Z,90.88
2022-12-08T03:26:08.689Z,91.18
2022-12-08T03:27:13.249Z,91.15
2022-12-08T03:28:17.167Z,91.17
2022-12-08T03:29:19.918Z,91.10
2022-12-08T03:30:23.630Z,90.95
2022-12-08T03:31:28.555Z,90.94
2022-12-08T03:32:37.266Z,90.97
2022-12-08T03:33:42.045Z,91.14
2022-12-08T03:34:48.340Z,91.02
2022-12-08T03:35:51.247Z,91.47
2022-12-08T03:36:56.388Z,91.18
2022-12-08T03:38:03.705Z,91.33
2022-12-08T03:39:07.478Z,90.88
2022-12-08T03:40:14.806Z,90.91
2022-12-08T03:41:21.299Z,91.09
2022-12-08T03:42:24.031Z,91.39
2022-12-08T03:43:27.853Z,91.51
2022-12-08T03:44:31.627Z,90.97
2022-12-08T03:45:34.561Z,90.88
2022-12-08T03:46:38.298Z,91.16
2022-12-08T03:47:40.979Z,91.01
2022-12-08T03:48:47.917Z,91.11
2022-12-08T03:49:51.681Z,91.35
2022-12-08T03:50:54.340Z,90.92
2022-12-08T03:52:00.356Z,90.83
2022-12-08T03:53:03.005Z,91.23
2022-12-08T03:54:06.809Z,91.11
2022-12-08T03:55:13.128Z,91.03
2022-12-08T03:56:21.368Z,90.83
2022-12-08T03:57:24.004Z,91.07
2022-12-08T03:58:30.773Z,90.61
2022-12-08T03:59:35.648Z,90.64
2022-12-08T04:00:39.292Z,90.91
2022-12-08T04:01:42.038Z,91.10
2022-12-08T04:02:45.947Z,90.93
2022-12-08T04:03:48.757Z,90.74
2022-12-08T04:04:53.469Z,91.34
2022-12-08T04:05:56.854Z,91.13
2022-12-08T04:07:02.779Z,91.17
2022-12-08T04:08:07.033Z,90.87
2022-12-08T04:09:13.738Z,91.16
2022-12-08T04:10:16.458Z,91.19
2022-12-08T04:11:20.912Z,91.08
2022-12-08T04:12:24.678Z,91.09
2022-12-08T04:13:28.887Z,90.95
2022-12-08T04:14:31.540Z,91.13
2022-12-08T04:15:35.328Z,91.20
2022-12-08T04:16:39.409Z,91.01
2022-12-08T04:17:42.982Z,91.22
2022-12-08T04:18:47.299Z,91.31
2022-12-08T04:19:50.289Z,90.90
2022-12-08T04:20:54.469Z,91.05
2022-12-08T04:21:58.301Z,90.99
2022-12-08T04:23:02.969Z,90.95
2022-12-08T04:24:07.371Z,90.56
2022-12-08T04:25:13.065Z,90.52
2022-12-08T04:26:17.669Z,91.06
2022-12-08T04:27:20.537Z,90.44
2022-12-08T04:28:24.498Z,90.97
2022-12-08T04:29:29.059Z,90.60
2022-12-08T04:30:32.198Z,91.02
2022-12-08T04:31:36.012Z,90.83
2022-12-08T04:32:47.099Z,90.92
2022-12-08T04:33:51.255Z,90.73
2022-12-08T04:34:55.181Z,91.21
2022-12-08T04:36:00.498Z,91.01
2022-12-08T04:37:07.308Z,90.81
2022-12-08T04:38:11.510Z,90.90
2022-12-08T04:39:15.190Z,91.10
2022-12-08T04:40:18.648Z,91.51
2022-12-08T04:41:22.381Z,90.79
2022-12-08T04:42:26.324Z,91.50
2022-12-08T04:43:30.499Z,91.46
2022-12-08T04:44:33.389Z,91.41
2022-12-08T04:45:37.140Z,91.32
2022-12-08T04:46:43.389Z,91.42
2022-12-08T04:47:50.285Z,91.77
2022-12-08T04:48:54.049Z,91.15
2022-12-08T04:49:56.853Z,91.24
2022-12-08T04:51:00.609Z,91.83
2022-12-08T04:52:03.338Z,91.19
2022-12-08T04:53:07.635Z,91.24
2022-12-08T04:54:11.783Z,91.24
2022-12-08T04:55:15.975Z,91.25
2022-12-08T04:56:20.065Z,91.86
2022-12-08T04:57:23.898Z,91.66
2022-12-08T04:58:26.646Z,91.38
2022-12-08T04:59:30.417Z,91.61
2022-12-08T05:00:33.859Z,91.04
2022-12-08T05:01:37.635Z,91.57
2022-12-08T05:02:40.721Z,91.76
2022-12-08T05:03:44.594Z,91.39
2022-12-08T05:04:47.836Z,91.12
2022-12-08T05:05:51.817Z,91.43
2022-12-08T05:06:54.467Z,91.45
2022-12-08T05:08:01.112Z,91.25
2022-12-08T05:09:03.877Z,91.65
2022-12-08T05:10:10.327Z,91.37
2022-12-08T05:11:15.399Z,91.35
2022-12-08T05:12:18.411Z,91.39
2022-12-08T05:13:22.250Z,91.12
2022-12-08T05:14:25.125Z,91.11
2022-12-08T05:15:29.380Z,91.40
2022-12-08T05:16:32.097Z,91.21
2022-12-08T05:17:36.147Z,91.56
2022-12-08T05:18:39.798Z,91.50
2022-12-08T05:19:43.447Z,91.11
2022-12-08T05:20:46.079Z,91.32
2022-12-08T05:21:50.229Z,91.02
2022-12-08T05:22:52.919Z,90.98
2022-12-08T05:23:57.032Z,91.08
2022-12-08T05:24:59.775Z,90.82
2022-12-08T05:26:05.247Z,91.31
2022-12-08T05:27:08.295Z,91.10
2022-12-08T05:28:40.067Z,90.83
2022-12-08T05:29:38.848Z,90.77
2022-12-08T05:30:42.839Z,90.97
2022-12-08T05:31:46.723Z,91.07
2022-12-08T05:32:49.761Z,91.14
2022-12-08T05:33:54.014Z,91.53
2022-12-08T05:34:56.851Z,91.05
2022-12-08T05:36:00.857Z,91.16
2022-12-08T05:37:03.548Z,90.74
2022-12-08T05:38:07.879Z,91.06
2022-12-08T05:39:13.980Z,91.35
2022-12-08T05:40:18.268Z,90.71
2022-12-08T05:41:22.777Z,91.36
2022-12-08T05:42:26.669Z,90.97
2022-12-08T05:43:29.668Z,91.24
2022-12-08T05:44:33.388Z,90.94
2022-12-08T05:45:36.069Z,90.90
2022-12-08T05:46:39.990Z,90.76
2022-12-08T05:47:43.190Z,90.92
2022-12-08T05:48:47.163Z,90.54
2022-12-08T05:49:50.051Z,90.92
2022-12-08T05:50:53.817Z,90.74
2022-12-08T05:51:56.527Z,90.64
2022-12-08T05:53:00.298Z,90.70
2022-12-08T05:54:03.138Z,90.62
2022-12-08T05:55:07.741Z,90.72
2022-12-08T05:56:12.352Z,90.69
2022-12-08T05:57:16.558Z,90.61
2022-12-08T05:58:21.308Z,90.62
2022-12-08T05:59:23.987Z,90.45
2022-12-08T06:00:27.806Z,90.37
2022-12-08T06:01:31.822Z,90.55
2022-12-08T06:02:36.007Z,90.79
2022-12-08T06:03:38.878Z,90.77
2022-12-08T06:04:42.899Z,90.75
2022-12-08T06:05:46.892Z,91.07
2022-12-08T06:06:51.202Z,90.96
2022-12-08T06:07:55.049Z,90.95
2022-12-08T06:08:57.846Z,90.68
2022-12-08T06:10:01.790Z,90.70
2022-12-08T06:11:04.660Z,90.46
2022-12-08T06:12:08.889Z,90.32
2022-12-08T06:13:13.070Z,90.53
2022-12-08T06:14:16.766Z,90.61
2022-12-08T06:15:19.438Z,90.39
2022-12-08T06:16:23.329Z,90.54
2022-12-08T06:17:26.027Z,90.61
2022-12-08T06:18:32.880Z,90.34
2022-12-08T06:19:35.757Z,90.54
2022-12-08T06:20:39.638Z,90.02
2022-12-08T06:21:43.337Z,90.17
2022-12-08T06:22:46.118Z,90.58
2022-12-08T06:23:50.807Z,90.79
2022-12-08T06:24:53.387Z,90.13
2022-12-08T06:25:57.156Z,90.85
2022-12-08T06:26:59.838Z,90.41
2022-12-08T06:28:03.520Z,90.87
2022-12-08T06:29:08.642Z,90.72
2022-12-08T06:30:11.868Z,90.88
2022-12-08T06:31:17.952Z,91.00
2022-12-08T06:32:25.819Z,90.64
2022-12-08T06:33:31.077Z,90.98
2022-12-08T06:34:34.808Z,90.67
2022-12-08T06:35:37.828Z,90.91
2022-12-08T06:36:41.557Z,90.81
2022-12-08T06:37:44.218Z,91.05
2022-12-08T06:38:48.141Z,91.36
2022-12-08T06:39:50.879Z,91.51
2022-12-08T06:40:56.175Z,91.30
2022-12-08T06:42:17.216Z,91.80
2022-12-08T06:43:20.948Z,91.29
2022-12-08T06:44:25.188Z,91.54
2022-12-08T06:45:29.032Z,91.74
2022-12-08T06:46:32.982Z,91.76
2022-12-08T06:47:35.786Z,91.40
2022-12-08T06:48:39.533Z,91.53
2022-12-08T06:49:42.250Z,91.77
2022-12-08T06:50:46.123Z,92.18
2022-12-08T06:51:48.822Z,92.27
2022-12-08T06:53:02.821Z,92.23
2022-12-08T06:54:08.738Z,92.03
2022-12-08T06:55:24.615Z,92.20
2022-12-08T06:56:35.618Z,91.99
2022-12-08T06:57:38.499Z,92.25
2022-12-08T06:58:45.055Z,91.84
2022-12-08T06:59:54.004Z,91.98
2022-12-08T07:00:56.824Z,92.07
2022-12-08T07:02:00.763Z,92.48
2022-12-08T07:03:03.551Z,92.33
2022-12-08T07:04:07.340Z,92.40
2022-12-08T07:05:10.009Z,92.22
2022-12-08T07:06:17.338Z,92.51
2022-12-08T07:07:20.000Z,92.18
2022-12-08T07:08:23.799Z,92.33
2022-12-08T07:09:27.574Z,92.44
2022-12-08T07:10:30.188Z,92.11
2022-12-08T07:11:33.968Z,92.40
2022-12-08T07:12:36.598Z,92.64
2022-12-08T07:13:40.519Z,92.46
2022-12-08T07:14:43.209Z,92.10
2022-12-08T07:15:48.308Z,92.30
2022-12-08T07:16:52.446Z,92.21
2022-12-08T07:17:59.834Z,92.43
2022-12-08T07:19:04.145Z,92.04
2022-12-08T07:20:08.229Z,91.98
2022-12-08T07:21:15.028Z,91.85
2022-12-08T07:22:18.857Z,91.93
2022-12-08T07:23:22.549Z,91.94
2022-12-08T07:24:26.285Z,91.07
2022-12-08T07:25:28.951Z,90.80
2022-12-08T07:26:32.739Z,91.39
2022-12-08T07:27:35.429Z,91.27
2022-12-08T07:28:41.540Z,91.21
2022-12-08T07:29:44.207Z,91.06
2022-12-08T07:30:49.395Z,90.87
2022-12-08T07:31:52.154Z,90.45
2022-12-08T07:32:55.925Z,90.45
2022-12-08T07:33:59.831Z,89.98
2022-12-08T07:35:02.565Z,90.46
2022-12-08T07:36:07.318Z,89.93
2022-12-08T07:37:10.002Z,89.82
2022-12-08T07:38:13.821Z,89.79
2022-12-08T07:39:16.522Z,89.71
2022-12-08T07:40:20.280Z,89.60
2022-12-08T07:41:25.519Z,89.28
2022-12-08T07:42:29.406Z,89.35
2022-12-08T07:43:32.370Z,89.20
2022-12-08T07:44:36.046Z,89.17
2022-12-08T07:45:38.688Z,89.16
2022-12-08T07:46:43.833Z,89.29
2022-12-08T07:47:46.640Z,88.77
2022-12-08T07:48:50.346Z,89.00
2022-12-08T07:49:54.035Z,89.20
2022-12-08T07:51:01.482Z,89.17
2022-12-08T07:52:05.339Z,88.98
2022-12-08T07:53:08.219Z,88.52
2022-12-08T07:54:13.060Z,88.79
2022-12-08T07:55:16.816Z,89.12
2022-12-08T07:56:19.471Z,88.95
2022-12-08T07:57:23.183Z,88.87
2022-12-08T07:58:26.014Z,89.28
2022-12-08T07:59:29.850Z,89.28
2022-12-08T08:00:32.560Z,89.12
2022-12-08T08:01:36.715Z,89.04
2022-12-08T08:02:41.992Z,88.91
2022-12-08T08:03:44.739Z,89.36
2022-12-08T08:04:51.579Z,89.25
2022-12-08T08:05:54.325Z,89.24
2022-12-08T08:06:58.233Z,89.32
2022-12-08T08:08:02.000Z,88.82
2022-12-08T08:09:06.112Z,89.44
2022-12-08T08:10:11.005Z,89.43
2022-12-08T08:11:20.806Z,89.27
2022-12-08T08:12:33.191Z,89.14
2022-12-08T08:13:37.408Z,89.24
2022-12-08T08:14:40.089Z,89.90
2022-12-08T08:15:43.946Z,89.98
2022-12-08T08:16:47.850Z,90.30
2022-12-08T08:17:52.676Z,90.32
2022-12-08T08:18:56.501Z,90.14
2022-12-08T08:20:00.324Z,90.45
2022-12-08T08:21:22.207Z,90.37
2022-12-08T08:22:27.023Z,90.39
2022-12-08T08:23:29.909Z,90.45
2022-12-08T08:24:33.721Z,90.83
2022-12-08T08:25:36.428Z,90.98
2022-12-08T08:26:40.108Z,90.78
2022-12-08T08:27:44.138Z,90.62
2022-12-08T08:28:48.328Z,90.74
2022-12-08T08:29:52.040Z,90.57
2022-12-08T08:30:55.193Z,90.59
2022-12-08T08:31:58.979Z,90.44
2022-12-08T08:33:03.040Z,90.71
2022-12-08T08:34:06.807Z,90.32
2022-12-08T08:35:11.239Z,90.18
2022-12-08T08:36:14.919Z,90.06
2022-12-08T08:37:17.729Z,90.13
2022-12-08T08:38:21.979Z,89.64
2022-12-08T08:39:26.095Z,89.61
2022-12-08T08:40:29.872Z,89.55
2022-12-08T08:41:32.508Z,89.26
2022-12-08T08:42:36.328Z,88.90
2022-12-08T08:43:39.207Z,88.85
2022-12-08T08:44:42.918Z,88.94
2022-12-08T08:45:45.677Z,88.97
2022-12-08T08:46:49.435Z,88.80
2022-12-08T08:47:52.172Z,88.39
2022-12-08T08:48:57.612Z,88.68
2022-12-08T08:50:00.319Z,88.92
2022-12-08T08:51:09.129Z,88.51
2022-12-08T08:52:12.868Z,88.60
2022-12-08T08:53:15.563Z,88.37
2022-12-08T08:54:19.209Z,88.12
2022-12-08T08:55:22.980Z,88.35
2022-12-08T08:56:25.935Z,88.34
2022-12-08T08:57:29.757Z,88.33
2022-12-08T08:58:32.417Z,88.19
2022-12-08T08:59:36.211Z,88.07
2022-12-08T09:00:38.898Z,87.93
2022-12-08T09:01:42.721Z,88.17
2022-12-08T09:02:46.519Z,87.83
2022-12-08T09:03:50.588Z,88.13
2022-12-08T09:04:55.789Z,88.40
2022-12-08T09:05:58.618Z,88.42
2022-12-08T09:07:02.320Z,88.25
2022-12-08T09:08:05.228Z,88.27
2022-12-08T09:09:08.999Z,88.13
2022-12-08T09:10:12.037Z,88.52
2022-12-08T09:11:15.898Z,88.43
2022-12-08T09:12:18.521Z,88.35
2022-12-08T09:13:22.495Z,88.59
2022-12-08T09:14:26.288Z,88.46
2022-12-08T09:15:30.262Z,88.29
2022-12-08T09:16:37.443Z,88.25
2022-12-08T09:17:44.200Z,88.19
2022-12-08T09:18:48.459Z,88.04
2022-12-08T09:19:52.223Z,87.88
2022-12-08T09:20:56.575Z,87.73
2022-12-08T09:22:00.349Z,87.92
2022-12-08T09:23:04.038Z,87.61
2022-12-08T09:24:07.261Z,87.35
2022-12-08T09:25:11.558Z,87.50
2022-12-08T09:26:15.299Z,87.34
2022-12-08T09:27:19.021Z,86.87
2022-12-08T09:28:22.750Z,86.83
2022-12-08T09:29:31.061Z,86.83
2022-12-08T09:30:37.859Z,85.71
2022-12-08T09:31:41.779Z,86.25
2022-12-08T09:32:45.598Z,86.35
2022-12-08T09:33:48.459Z,86.65
2022-12-08T09:34:52.511Z,86.59
2022-12-08T09:35:57.927Z,86.67
2022-12-08T09:37:01.624Z,86.76
2022-12-08T09:38:05.348Z,86.38
2022-12-08T09:39:08.027Z,86.29
2022-12-08T09:40:14.510Z,86.34
2022-12-08T09:41:30.812Z,86.27
2022-12-08T09:42:44.549Z,86.17
2022-12-08T09:43:57.254Z,86.36
2022-12-08T09:45:05.341Z,86.08
2022-12-08T09:46:11.194Z,86.18
2022-12-08T09:47:21.129Z,86.11
2022-12-08T09:48:27.472Z,86.05
2022-12-08T09:49:35.680Z,85.78
2022-12-08T09:50:41.762Z,84.83
2022-12-08T09:51:46.128Z,84.61
2022-12-08T09:52:59.226Z,84.77
2022-12-08T09:54:05.764Z,84.59
2022-12-08T09:55:15.018Z,84.88
2022-12-08T09:56:21.237Z,84.75
2022-12-08T09:57:24.788Z,84.61
2022-12-08T09:58:33.869Z,84.67
2022-12-08T09:59:37.781Z,84.33
2022-12-08T10:00:41.510Z,83.45
2022-12-08T10:01:45.411Z,84.25
2022-12-08T10:02:49.168Z,84.26
2022-12-08T10:03:54.989Z,84.37
2022-12-08T10:04:59.113Z,84.30
2022-12-08T10:06:08.701Z,84.33
2022-12-08T10:07:18.104Z,83.76
2022-12-08T10:08:25.505Z,83.71
2022-12-08T10:09:33.879Z,83.88
2022-12-08T10:10:41.207Z,83.79
2022-12-08T10:11:48.108Z,83.47
2022-12-08T10:12:56.268Z,83.24
2022-12-08T10:14:05.460Z,82.70
2022-12-08T10:15:24.090Z,82.93
2022-12-08T10:16:35.180Z,83.43
2022-12-08T10:17:41.342Z,83.83
2022-12-08T10:18:45.170Z,82.75
2022-12-08T10:19:49.030Z,82.68
2022-12-08T10:20:53.370Z,82.53
2022-12-08T10:21:58.449Z,81.03
2022-12-08T10:23:10.270Z,81.15
2022-12-08T10:24:20.008Z,80.97
2022-12-08T10:25:36.680Z,81.64
2022-12-08T10:26:40.918Z,82.13
2022-12-08T10:27:44.663Z,81.58
2022-12-08T10:28:48.680Z,81.26
2022-12-08T10:29:52.439Z,81.56
2022-12-08T10:30:56.595Z,81.72
2022-12-08T10:32:01.410Z,81.83
2022-12-08T10:33:04.610Z,81.34
2022-12-08T10:34:16.530Z,81.60
2022-12-08T10:35:21.598Z,81.03
2022-12-08T10:36:26.938Z,79.57
2022-12-08T10:37:29.770Z,79.13
2022-12-08T10:38:36.329Z,80.32
2022-12-08T10:39:40.454Z,80.39
2022-12-08T10:40:45.979Z,80.50
2022-12-08T10:41:49.723Z,80.45
2022-12-08T10:42:55.447Z,80.73
2022-12-08T10:44:01.748Z,80.42
2022-12-08T10:45:18.721Z,80.19
2022-12-08T10:46:26.045Z,79.58
2022-12-08T10:47:29.960Z,80.31
2022-12-08T10:48:34.127Z,78.91
2022-12-08T10:49:38.829Z,80.28
2022-12-08T10:50:44.750Z,80.29
2022-12-08T10:51:48.459Z,80.55
2022-12-08T10:52:57.295Z,80.28
2022-12-08T10:54:03.479Z,80.02
2022-12-08T10:55:14.860Z,80.31
2022-12-08T10:56:19.368Z,79.24
2022-12-08T10:57:23.990Z,80.12
2022-12-08T10:58:35.836Z,80.00
2022-12-08T10:59:43.656Z,80.20
2022-12-08T11:00:46.501Z,79.62
2022-12-08T11:01:52.463Z,79.18
2022-12-08T11:03:00.530Z,79.72
2022-12-08T11:04:05.609Z,79.05
2022-12-08T11:05:17.940Z,79.43
2022-12-08T11:06:24.858Z,79.96
2022-12-08T11:07:29.219Z,78.89
2022-12-08T11:08:32.191Z,79.52
2022-12-08T11:09:46.930Z,79.45
2022-12-08T11:10:49.947Z,79.15
2022-12-08T11:11:55.967Z,79.44
2022-12-08T11:13:02.220Z,80.00
2022-12-08T11:14:08.092Z,79.41
2022-12-08T11:15:16.664Z,79.27
2022-12-08T11:16:21.565Z,78.66
2022-12-08T11:17:26.556Z,79.29
2022-12-08T11:18:31.589Z,79.33
2022-12-08T11:19:39.031Z,79.23
2022-12-08T11:20:43.182Z,79.46
2022-12-08T11:21:47.446Z,79.29
2022-12-08T11:22:53.369Z,79.83
2022-12-08T11:23:57.094Z,79.55
2022-12-08T11:25:03.800Z,78.88
2022-12-08T11:26:15.129Z,79.76
2022-12-08T11:27:17.899Z,79.79
2022-12-08T11:28:25.171Z,78.36
2022-12-08T11:29:30.903Z,78.40
2022-12-08T11:30:37.299Z,77.99
2022-12-08T11:31:42.822Z,77.59
2022-12-08T11:32:46.907Z,78.08
2022-12-08T11:33:51.499Z,78.05
2022-12-08T11:34:56.823Z,78.76
2022-12-08T11:36:05.479Z,78.12
2022-12-08T11:37:14.480Z,78.58
2022-12-08T11:38:22.790Z,78.65
2022-12-08T11:39:28.069Z,77.24
2022-12-08T11:40:36.289Z,77.86
2022-12-08T11:41:42.084Z,77.42
2022-12-08T11:42:52.619Z,77.17
2022-12-08T11:44:00.708Z,77.57
2022-12-08T11:45:08.125Z,77.98
2022-12-08T11:46:16.532Z,77.35
2022-12-08T11:47:23.890Z,77.26
2022-12-08T11:48:33.511Z,77.40
2022-12-08T11:49:39.838Z,76.40
2022-12-08T11:50:45.920Z,77.55
2022-12-08T11:51:54.820Z,77.08
2022-12-08T11:52:58.994Z,76.42
2022-12-08T11:54:18.816Z,77.29
2022-12-08T11:55:37.293Z,76.19
2022-12-08T11:56:46.940Z,76.23
2022-12-08T11:57:49.612Z,76.52
2022-12-08T11:58:57.011Z,76.50
2022-12-08T12:00:02.842Z,76.73
2022-12-08T12:01:20.472Z,75.00
2022-12-08T12:02:26.802Z,75.52
2022-12-08T12:03:33.385Z,75.47
2022-12-08T12:04:40.277Z,75.24
2022-12-08T12:06:13.115Z,75.03
2022-12-08T12:07:38.198Z,76.13
2022-12-08T12:08:47.544Z,76.42
2022-12-08T12:10:07.162Z,77.21
2022-12-08T12:11:38.316Z,77.05
2022-12-08T12:12:52.875Z,77.46
2022-12-08T12:14:02.481Z,77.50
2022-12-08T12:15:41.663Z,78.04
2022-12-08T12:16:55.885Z,77.58
2022-12-08T12:18:01.732Z,77.99
2022-12-08T12:19:07.258Z,78.51
2022-12-08T12:20:16.207Z,78.58
2022-12-08T12:21:22.352Z,79.02
2022-12-08T12:22:25.886Z,79.26
2022-12-08T12:23:36.698Z,78.94
2022-12-08T12:24:40.937Z,78.93
2022-12-08T12:25:49.637Z,79.03
2022-12-08T12:27:00.437Z,79.02
2022-12-08T12:28:06.365Z,79.21
2022-12-08T12:29:16.685Z,79.19
2022-12-08T12:30:22.983Z,79.43
2022-12-08T12:31:28.269Z,79.49
2022-12-08T12:32:43.204Z,79.54
2022-12-08T12:33:48.258Z,79.34
2022-12-08T12:34:54.528Z,79.54
2022-12-08T12:35:57.905Z,79.46
2022-12-08T12:37:07.668Z,79.83
2022-12-08T12:38:39.643Z,79.95
2022-12-08T12:39:50.577Z,80.13
2022-12-08T12:40:59.555Z,80.34
2022-12-08T12:42:06.634Z,80.52
2022-12-08T12:43:14.986Z,80.79
2022-12-08T12:44:38.219Z,80.73
2022-12-08T12:45:44.122Z,80.65
2022-12-08T12:46:58.971Z,80.64
2022-12-08T12:48:22.516Z,80.69
2022-12-08T12:49:51.814Z,81.04
2022-12-08T12:50:57.110Z,81.17
2022-12-08T12:51:59.854Z,81.00
2022-12-08T12:53:10.625Z,81.43
2022-12-08T12:54:24.388Z,81.56
2022-12-08T12:55:53.292Z,81.40
2022-12-08T12:56:57.837Z,81.81
2022-12-08T12:58:16.553Z,81.62
2022-12-08T12:59:42.686Z,81.79
2022-12-08T13:00:46.444Z,81.79
2022-12-08T13:01:56.229Z,81.87
2022-12-08T13:03:00.642Z,82.27
2022-12-08T13:04:06.054Z,82.51
2022-12-08T13:05:12.300Z,82.25
2022-12-08T13:06:16.122Z,82.09
2022-12-08T13:07:22.282Z,82.10
2022-12-08T13:08:28.004Z,82.39
2022-12-08T13:09:37.312Z,82.58
2022-12-08T13:10:42.026Z,82.34
2022-12-08T13:11:50.424Z,82.56
2022-12-08T13:13:07.838Z,82.55
2022-12-08T13:14:27.066Z,82.35
2022-12-08T13:15:36.242Z,82.56
2022-12-08T13:16:40.005Z,82.38
2022-12-08T13:17:46.414Z,82.41
2022-12-08T13:18:51.335Z,82.36
2022-12-08T13:19:57.909Z,82.26
2022-12-08T13:21:06.385Z,82.66
2022-12-08T13:22:47.336Z,82.63
2022-12-08T13:23:53.383Z,82.33
2022-12-08T13:25:49.962Z,82.37
2022-12-08T13:27:30.093Z,82.68
2022-12-08T13:28:35.498Z,82.72
2022-12-08T13:29:39.654Z,82.65
2022-12-08T13:30:44.377Z,82.85
2022-12-08T13:31:51.395Z,82.92
2022-12-08T13:34:24.043Z,82.69
2022-12-08T13:35:26.985Z,82.54
2022-12-08T13:36:34.513Z,82.98
2022-12-08T13:37:54.325Z,82.83
2022-12-08T13:38:59.991Z,82.79
2022-12-08T13:40:05.938Z,82.73
2022-12-08T13:41:18.121Z,82.57
2022-12-08T13:42:25.710Z,82.48
2022-12-08T13:43:51.057Z,82.84
2022-12-08T13:45:48.751Z,82.85
2022-12-08T13:48:26.644Z,82.83
2022-12-08T13:51:23.606Z,82.63
2022-12-08T13:56:44.008Z,82.93
2022-12-08T13:57:11.955Z,83.58
2022-12-08T13:58:20.196Z,83.50
2022-12-08T13:59:30.956Z,83.54
2022-12-08T14:00:33.889Z,83.67
2022-12-08T14:01:45.139Z,84.18
2022-12-08T14:02:50.024Z,83.93
2022-12-08T14:05:40.798Z,83.92
2022-12-08T14:06:46.624Z,84.46
2022-12-08T14:07:52.854Z,84.25
2022-12-08T14:09:01.474Z,84.48
2022-12-08T14:10:10.477Z,84.83
2022-12-08T14:11:33.687Z,84.73
2022-12-08T14:12:38.202Z,84.72
2022-12-08T14:13:40.913Z,84.94
2022-12-08T14:15:03.826Z,84.84
2022-12-08T14:16:12.923Z,84.97
2022-12-08T14:17:19.415Z,84.98
2022-12-08T14:18:25.346Z,85.41
2022-12-08T14:19:30.262Z,85.26
2022-12-08T14:20:57.813Z,85.41
2022-12-08T14:22:01.333Z,85.55
2022-12-08T14:23:08.685Z,85.64
2022-12-08T14:24:12.249Z,85.41
2022-12-08T14:25:17.866Z,85.94
2022-12-08T14:26:25.264Z,85.80